Time;durP1;ratioP1;P1;durP2;ratioP2;P2;SDS_P1;SDS_P2;PMS_P1;PMS_P2;Temp;Humidity;BMP_temperature;BMP_pressure;BME280_temperature;BME280_humidity;BME280_pressure;Samples;Min_cycle;Max_cycle;Signal;HPM_P1;HPM_P2
2021/07/10 00:02:24;;;;;;;11.57;10.57;;;25.70;50.80;;;;;;4997107;28;20237;-69
2021/07/10 00:04:51;;;;;;;11.00;10.00;;;25.70;50.90;;;;;;5003276;28;20245;-69
2021/07/10 00:07:18;;;;;;;11.23;10.33;;;25.70;50.90;;;;;;5009682;28;20216;-70
2021/07/10 00:09:45;;;;;;;10.83;9.93;;;25.70;51.00;;;;;;5003940;28;20221;-69
2021/07/10 00:12:12;;;;;;;11.13;10.07;;;25.70;51.00;;;;;;4997217;28;20291;-69
2021/07/10 00:14:39;;;;;;;10.80;9.83;;;25.70;51.00;;;;;;4997445;28;20238;-69
2021/07/10 00:17:05;;;;;;;11.90;9.87;;;25.60;50.90;;;;;;5004172;28;20225;-70
2021/07/10 00:19:32;;;;;;;11.10;10.10;;;25.60;51.00;;;;;;4993306;28;20272;-70
2021/07/10 00:22:04;;;;;;;11.40;10.30;;;25.60;51.10;;;;;;5002035;28;20582;-70
2021/07/10 00:24:31;;;;;;;10.83;9.73;;;25.60;51.10;;;;;;5002437;28;20213;-69
2021/07/10 00:26:59;;;;;;;10.87;9.87;;;25.60;51.10;;;;;;5010336;28;20680;-69
2021/07/10 00:29:26;;;;;;;10.90;9.90;;;25.50;51.10;;;;;;5009278;28;20236;-70
2021/07/10 00:31:53;;;;;;;10.70;9.80;;;25.50;51.10;;;;;;4986061;28;20240;-70
2021/07/10 00:34:20;;;;;;;10.73;9.63;;;25.50;51.20;;;;;;5007320;28;20575;-69
2021/07/10 00:36:47;;;;;;;9.60;8.80;;;25.50;51.20;;;;;;5009724;28;20229;-70
2021/07/10 00:39:14;;;;;;;10.30;9.40;;;25.50;51.30;;;;;;5002668;28;20232;-70
2021/07/10 00:41:41;;;;;;;9.87;8.97;;;25.50;51.40;;;;;;5005404;28;20214;-69
2021/07/10 00:44:07;;;;;;;10.50;9.40;;;25.50;51.40;;;;;;5009445;28;20225;-70
2021/07/10 00:46:34;;;;;;;10.57;9.57;;;25.40;51.50;;;;;;5007701;28;20630;-70
2021/07/10 00:49:01;;;;;;;10.83;9.23;;;25.50;51.60;;;;;;5003486;28;20264;-69
2021/07/10 00:51:28;;;;;;;10.27;9.47;;;25.40;51.50;;;;;;4997180;28;20212;-69
2021/07/10 00:53:55;;;;;;;11.30;10.23;;;25.40;51.50;;;;;;5007983;28;20240;-69
2021/07/10 00:56:22;;;;;;;10.77;9.87;;;25.40;51.60;;;;;;5009998;28;20225;-69
2021/07/10 00:58:50;;;;;;;11.20;10.27;;;25.40;51.60;;;;;;4992507;28;20446;-69
2021/07/10 01:01:17;;;;;;;11.43;10.43;;;25.40;51.70;;;;;;5005475;28;20221;-69
2021/07/10 01:03:45;;;;;;;11.27;10.27;;;25.40;52.40;;;;;;5006994;28;20209;-69
2021/07/10 01:06:13;;;;;;;11.80;10.70;;;25.40;51.80;;;;;;5009174;28;20231;-69
2021/07/10 01:08:41;;;;;;;11.17;10.17;;;25.30;51.70;;;;;;5011308;28;20224;-69
2021/07/10 01:11:09;;;;;;;11.00;10.00;;;25.30;51.80;;;;;;4997407;28;20753;-69
2021/07/10 01:13:36;;;;;;;11.53;10.33;;;25.30;51.80;;;;;;5003382;28;20229;-68
2021/07/10 01:16:04;;;;;;;11.67;10.00;;;25.30;51.80;;;;;;5009599;28;20229;-68
2021/07/10 01:18:32;;;;;;;11.83;10.73;;;25.30;51.90;;;;;;5009404;28;20264;-68
2021/07/10 01:20:59;;;;;;;11.03;9.97;;;25.30;52.00;;;;;;5009132;28;20259;-68
2021/07/10 01:23:26;;;;;;;11.10;10.07;;;25.20;51.90;;;;;;5007527;28;20223;-68
2021/07/10 01:25:54;;;;;;;10.57;9.67;;;25.30;52.00;;;;;;5005522;28;20224;-68
2021/07/10 01:28:21;;;;;;;11.57;10.37;;;25.20;52.00;;;;;;5003557;28;20267;-68
2021/07/10 01:30:49;;;;;;;10.77;9.67;;;25.20;52.00;;;;;;5012261;28;20216;-68
2021/07/10 01:33:17;;;;;;;11.00;9.93;;;25.20;52.10;;;;;;5013773;28;20225;-68
2021/07/10 01:35:44;;;;;;;11.03;10.13;;;25.20;52.10;;;;;;5007287;28;20584;-68
2021/07/10 01:38:12;;;;;;;11.10;10.00;;;25.20;52.10;;;;;;5008706;28;20221;-68
2021/07/10 01:40:39;;;;;;;10.67;9.70;;;25.20;52.10;;;;;;5011031;28;20224;-68
2021/07/10 01:43:06;;;;;;;10.37;9.40;;;25.20;52.20;;;;;;5011101;28;20598;-68
2021/07/10 01:45:37;;;;;;;10.50;9.60;;;25.20;52.30;;;;;;5005705;28;20229;-68
2021/07/10 01:48:07;;;;;;;9.80;8.93;;;25.20;52.40;;;;;;5009132;28;20232;-68
2021/07/10 01:50:33;;;;;;;10.53;9.53;;;25.20;52.40;;;;;;5006159;28;20225;-68
2021/07/10 01:53:01;;;;;;;10.40;9.50;;;25.20;52.50;;;;;;4997430;28;20319;-68
2021/07/10 01:55:28;;;;;;;10.50;9.47;;;25.10;52.40;;;;;;5010118;28;20244;-69
2021/07/10 01:57:56;;;;;;;10.40;9.40;;;25.10;52.50;;;;;;5009384;28;20223;-69
2021/07/10 02:00:27;;;;;;;10.23;9.23;;;25.10;52.40;;;;;;5007911;28;20221;-69
2021/07/10 02:02:55;;;;;;;11.03;9.87;;;25.10;52.50;;;;;;5006548;28;20220;-69
2021/07/10 02:05:27;;;;;;;10.50;9.60;;;25.20;52.60;;;;;;5008075;28;20213;-69
2021/07/10 02:07:57;;;;;;;10.40;9.50;;;25.10;52.50;;;;;;5005322;28;20218;-69
2021/07/10 02:10:26;;;;;;;10.37;9.37;;;25.10;52.50;;;;;;5004153;28;20221;-69
2021/07/10 02:12:59;;;;;;;10.40;9.40;;;25.10;52.50;;;;;;5009205;28;20224;-69
2021/07/10 02:15:26;;;;;;;10.30;9.30;;;25.10;52.60;;;;;;5004803;28;20233;-69
2021/07/10 02:17:53;;;;;;;10.17;9.17;;;25.10;52.60;;;;;;5001279;28;20265;-69
2021/07/10 02:20:23;;;;;;;10.27;9.27;;;25.10;52.60;;;;;;4991622;28;20252;-69
2021/07/10 02:22:51;;;;;;;10.70;9.60;;;25.10;52.60;;;;;;5001481;28;20238;-69
2021/07/10 02:25:19;;;;;;;10.67;9.67;;;25.00;52.60;;;;;;5001198;28;20229;-69
2021/07/10 02:27:47;;;;;;;10.70;9.70;;;25.00;52.70;;;;;;5005904;28;20224;-70
2021/07/10 02:30:17;;;;;;;11.20;10.10;;;25.00;52.70;;;;;;5008242;28;20227;-69
2021/07/10 02:32:46;;;;;;;10.40;9.40;;;25.00;52.70;;;;;;5008542;28;20646;-69
2021/07/10 02:35:14;;;;;;;10.20;9.20;;;25.00;52.80;;;;;;5004000;28;20817;-69
2021/07/10 02:37:41;;;;;;;10.83;9.80;;;25.00;52.80;;;;;;5007634;28;20225;-69
2021/07/10 02:40:10;;;;;;;10.43;9.50;;;25.00;52.80;;;;;;4992421;28;20224;-69
2021/07/10 02:42:37;;;;;;;9.90;9.00;;;25.00;52.90;;;;;;4990237;28;20237;-69
2021/07/10 02:45:07;;;;;;;10.47;9.47;;;25.00;52.90;;;;;;4993919;28;20224;-69
2021/07/10 02:47:33;;;;;;;10.33;9.43;;;25.00;52.90;;;;;;4997029;28;20241;-69
2021/07/10 02:50:01;;;;;;;10.47;9.57;;;24.90;52.80;;;;;;5001070;28;20243;-69
2021/07/10 02:52:27;;;;;;;10.43;9.33;;;24.90;52.80;;;;;;5007426;28;20221;-68
2021/07/10 02:54:54;;;;;;;10.20;9.30;;;25.00;52.90;;;;;;5006799;28;20248;-68
2021/07/10 02:57:22;;;;;;;10.60;9.60;;;25.00;52.90;;;;;;5006189;28;20220;-68
2021/07/10 02:59:49;;;;;;;10.07;9.23;;;24.90;52.90;;;;;;5011102;28;20225;-68
2021/07/10 03:02:16;;;;;;;11.17;10.17;;;25.00;52.90;;;;;;5008788;28;20212;-68
2021/07/10 03:04:45;;;;;;;10.67;9.67;;;24.90;52.90;;;;;;5014915;28;20208;-68
2021/07/10 03:07:11;;;;;;;10.27;9.37;;;24.90;53.00;;;;;;5005292;28;20237;-68
2021/07/10 03:09:38;;;;;;;10.47;9.53;;;24.90;53.00;;;;;;5002747;28;20650;-69
2021/07/10 03:12:06;;;;;;;10.17;9.27;;;24.90;53.00;;;;;;5018856;28;20301;-68
2021/07/10 03:14:33;;;;;;;10.57;9.70;;;24.90;53.00;;;;;;4992707;28;20479;-69
2021/07/10 03:17:00;;;;;;;10.43;9.53;;;24.90;53.00;;;;;;5015248;28;20275;-69
2021/07/10 03:19:27;;;;;;;10.83;9.83;;;24.90;53.00;;;;;;5011598;28;20250;-68
2021/07/10 03:21:53;;;;;;;11.07;9.77;;;24.90;53.10;;;;;;4995791;28;20225;-68
2021/07/10 03:24:20;;;;;;;11.17;10.20;;;24.90;53.10;;;;;;4985172;28;20225;-69
2021/07/10 03:26:47;;;;;;;10.30;9.40;;;24.90;53.20;;;;;;5007641;28;20217;-69
2021/07/10 03:29:14;;;;;;;10.53;9.53;;;24.90;53.20;;;;;;4978325;28;20230;-69
2021/07/10 03:31:40;;;;;;;10.77;9.70;;;24.90;53.20;;;;;;4994652;28;20209;-69
2021/07/10 03:34:07;;;;;;;11.87;10.77;;;24.80;53.20;;;;;;4998002;28;20264;-68
2021/07/10 03:36:34;;;;;;;11.87;10.20;;;24.80;53.20;;;;;;4992611;28;20233;-69
2021/07/10 03:39:01;;;;;;;11.47;10.37;;;24.80;53.20;;;;;;4991583;28;20229;-69
2021/07/10 03:41:28;;;;;;;11.47;10.37;;;24.80;53.20;;;;;;4992193;28;20218;-69
2021/07/10 03:43:54;;;;;;;11.83;10.73;;;24.80;53.10;;;;;;4990579;28;20229;-69
2021/07/10 03:46:21;;;;;;;11.27;10.27;;;24.80;53.10;;;;;;4992047;28;20230;-69
2021/07/10 03:48:48;;;;;;;11.73;10.53;;;24.80;53.10;;;;;;4992208;28;20232;-69
2021/07/10 03:51:15;;;;;;;12.17;11.10;;;24.80;53.00;;;;;;5004943;28;20231;-69
2021/07/10 03:53:42;;;;;;;11.40;10.40;;;24.80;53.00;;;;;;4988167;28;20217;-69
2021/07/10 03:56:09;;;;;;;11.77;10.67;;;24.80;53.00;;;;;;4990554;28;20249;-69
2021/07/10 03:58:35;;;;;;;11.47;10.27;;;24.80;53.00;;;;;;4990567;28;20224;-69
2021/07/10 04:01:02;;;;;;;11.27;10.27;;;24.80;53.10;;;;;;4985370;28;20227;-69
2021/07/10 04:03:29;;;;;;;10.87;9.97;;;24.80;53.10;;;;;;4986201;28;20230;-69
2021/07/10 04:05:56;;;;;;;11.27;10.20;;;24.80;53.10;;;;;;5006266;28;20222;-69
2021/07/10 04:08:23;;;;;;;10.93;10.00;;;24.70;53.00;;;;;;4980129;28;20932;-69
2021/07/10 04:10:49;;;;;;;12.03;10.83;;;24.80;53.00;;;;;;4983803;28;20240;-69
2021/07/10 04:13:16;;;;;;;10.43;9.53;;;24.80;53.00;;;;;;4987087;28;20222;-70
2021/07/10 04:15:43;;;;;;;11.53;10.37;;;24.80;53.10;;;;;;5005972;28;20245;-70
2021/07/10 04:18:10;;;;;;;10.73;9.63;;;24.70;53.00;;;;;;4999218;28;20240;-70
2021/07/10 04:20:40;;;;;;;10.33;9.43;;;24.70;53.10;;;;;;4993635;28;20216;-69
2021/07/10 04:23:06;;;;;;;11.20;10.10;;;24.70;53.10;;;;;;4991737;28;20322;-69
2021/07/10 04:25:33;;;;;;;11.83;10.73;;;24.70;53.10;;;;;;5006118;28;20221;-69
2021/07/10 04:28:00;;;;;;;11.57;10.57;;;24.70;53.10;;;;;;5008164;28;20244;-68
2021/07/10 04:30:27;;;;;;;11.83;10.50;;;24.80;53.20;;;;;;4992191;28;20579;-68
2021/07/10 04:32:54;;;;;;;12.37;11.27;;;24.80;53.30;;;;;;5009422;28;20225;-68
2021/07/10 04:35:21;;;;;;;11.73;10.73;;;24.70;53.20;;;;;;4992515;28;20245;-69
2021/07/10 04:37:48;;;;;;;11.83;10.73;;;24.70;53.20;;;;;;4993791;28;20217;-70
2021/07/10 04:40:15;;;;;;;12.40;11.03;;;24.70;53.30;;;;;;5007816;28;20834;-69
2021/07/10 04:42:43;;;;;;;11.03;10.03;;;24.70;53.30;;;;;;5000033;28;20209;-68
2021/07/10 04:45:10;;;;;;;11.77;10.60;;;24.70;53.30;;;;;;5009309;28;20220;-69
2021/07/10 04:47:37;;;;;;;11.40;10.33;;;24.70;53.30;;;;;;5006046;28;20218;-69
2021/07/10 04:50:06;;;;;;;11.00;9.97;;;24.70;53.30;;;;;;5003740;28;20228;-69
2021/07/10 04:52:32;;;;;;;10.97;9.97;;;24.70;53.40;;;;;;5007249;28;20332;-70
2021/07/10 04:54:59;;;;;;;11.47;10.27;;;24.70;54.10;;;;;;5007624;28;20225;-70
2021/07/10 04:57:26;;;;;;;10.97;10.00;;;24.70;53.50;;;;;;4999566;28;20237;-70
2021/07/10 04:59:53;;;;;;;10.83;9.73;;;24.70;53.60;;;;;;5003571;28;20217;-70
2021/07/10 05:02:23;;;;;;;11.00;10.00;;;24.70;53.60;;;;;;4996779;28;20225;-70
2021/07/10 05:04:50;;;;;;;11.07;10.17;;;24.70;53.60;;;;;;5003651;28;20253;-70
2021/07/10 05:07:17;;;;;;;10.90;9.90;;;24.70;53.70;;;;;;5007331;28;20228;-70
2021/07/10 05:09:44;;;;;;;12.27;10.70;;;24.70;54.10;;;;;;5006894;28;20244;-70
2021/07/10 05:12:11;;;;;;;12.73;11.57;;;24.70;54.30;;;;;;5008401;28;20225;-70
2021/07/10 05:14:37;;;;;;;12.50;11.20;;;24.70;54.40;;;;;;5002223;28;20224;-71
2021/07/10 05:17:04;;;;;;;13.83;12.20;;;24.70;54.40;;;;;;5008589;28;20232;-69
2021/07/10 05:19:31;;;;;;;12.77;11.57;;;24.70;54.50;;;;;;5006613;28;20252;-69
2021/07/10 05:21:58;;;;;;;14.27;12.87;;;24.70;54.50;;;;;;4998022;28;20708;-69
2021/07/10 05:24:25;;;;;;;13.10;11.80;;;24.70;54.60;;;;;;4997768;28;20222;-69
2021/07/10 05:26:52;;;;;;;15.73;12.10;;;24.70;54.70;;;;;;4993507;28;20221;-68
2021/07/10 05:29:19;;;;;;;14.63;13.33;;;24.70;54.80;;;;;;5010373;28;20215;-67
2021/07/10 05:31:46;;;;;;;13.33;12.03;;;24.70;54.80;;;;;;5005834;28;20217;-70
2021/07/10 05:34:13;;;;;;;14.50;13.00;;;24.70;54.70;;;;;;5008257;28;20213;-70
2021/07/10 05:36:39;;;;;;;15.23;13.70;;;24.70;54.80;;;;;;4997980;28;20237;-70
2021/07/10 05:39:06;;;;;;;15.43;13.83;;;24.70;54.80;;;;;;4998842;28;20221;-70
2021/07/10 05:41:33;;;;;;;15.77;14.10;;;24.70;54.90;;;;;;5004736;28;20221;-70
2021/07/10 05:44:00;;;;;;;15.23;13.60;;;24.70;54.90;;;;;;4986531;28;20219;-70
2021/07/10 05:46:27;;;;;;;16.03;14.43;;;24.70;54.90;;;;;;4989366;28;20568;-70
2021/07/10 05:48:53;;;;;;;17.53;14.17;;;24.70;54.90;;;;;;4999085;28;20225;-70
2021/07/10 05:51:21;;;;;;;15.53;14.13;;;24.70;55.00;;;;;;5001283;28;20223;-70
2021/07/10 05:53:48;;;;;;;14.87;13.40;;;24.70;55.00;;;;;;4996749;28;20216;-67
2021/07/10 05:56:15;;;;;;;15.10;13.70;;;24.70;55.10;;;;;;5007478;28;20233;-67
2021/07/10 05:58:42;;;;;;;16.23;14.63;;;24.80;55.20;;;;;;5013512;28;20216;-69
2021/07/10 06:01:09;;;;;;;16.87;15.07;;;24.80;55.30;;;;;;5006231;28;20224;-70
2021/07/10 06:03:36;;;;;;;16.27;14.37;;;24.80;55.10;;;;;;5013050;28;20216;-70
2021/07/10 06:06:03;;;;;;;15.77;13.80;;;24.90;55.10;;;;;;4997616;28;20244;-70
2021/07/10 06:08:29;;;;;;;15.83;13.90;;;24.90;55.00;;;;;;5006645;28;20627;-70
2021/07/10 06:11:05;;;;;;;15.73;14.13;;;24.90;54.90;;;;;;5014780;28;20224;-71
2021/07/10 06:13:32;;;;;;;16.23;14.53;;;24.90;54.90;;;;;;4996400;28;20221;-70
2021/07/10 06:16:06;;;;;;;16.57;14.87;;;25.00;54.80;;;;;;5011928;28;20246;-68
2021/07/10 06:18:36;;;;;;;15.40;13.90;;;25.00;54.70;;;;;;5004961;28;20327;-70
2021/07/10 06:21:17;;;;;;;16.33;14.73;;;25.00;54.60;;;;;;4994897;28;20720;-71
2021/07/10 06:23:51;;;;;;;16.77;15.10;;;25.10;54.50;;;;;;5011694;28;20659;-69
2021/07/10 06:26:18;;;;;;;16.20;14.50;;;25.10;54.50;;;;;;5012172;28;20229;-70
2021/07/10 06:28:47;;;;;;;17.10;14.40;;;25.10;54.40;;;;;;5012352;28;20637;-69
2021/07/10 06:31:14;;;;;;;17.83;15.40;;;25.20;54.40;;;;;;5029402;28;20233;-68
2021/07/10 06:33:40;;;;;;;16.13;14.50;;;25.20;54.40;;;;;;5013120;28;20221;-69
2021/07/10 06:36:07;;;;;;;18.73;16.07;;;25.20;54.40;;;;;;5025308;28;20916;-69
2021/07/10 06:38:34;;;;;;;15.43;13.83;;;25.20;54.30;;;;;;5008592;28;20225;-69
2021/07/10 06:41:01;;;;;;;15.33;13.67;;;25.20;54.10;;;;;;5017978;28;20255;-69
2021/07/10 06:43:43;;;;;;;16.40;13.83;;;25.20;54.30;;;;;;5001476;28;20243;-69
2021/07/10 06:46:28;;;;;;;15.17;13.43;;;25.20;54.40;;;;;;5009112;28;20221;-70
2021/07/10 06:48:55;;;;;;;15.83;14.23;;;25.20;54.30;;;;;;5004439;28;20228;-70
2021/07/10 06:51:22;;;;;;;14.70;13.37;;;25.20;54.40;;;;;;5004792;28;20221;-70
2021/07/10 06:53:49;;;;;;;15.63;14.13;;;25.20;54.40;;;;;;5011509;28;20304;-70
2021/07/10 06:56:16;;;;;;;16.70;15.00;;;25.20;54.40;;;;;;5013560;28;20230;-70
2021/07/10 06:58:43;;;;;;;16.20;14.47;;;25.10;54.40;;;;;;5014359;28;20222;-70
2021/07/10 07:01:11;;;;;;;15.90;14.30;;;25.20;54.50;;;;;;5006307;28;20217;-70
2021/07/10 07:03:38;;;;;;;16.33;14.73;;;25.20;54.50;;;;;;5009818;28;20232;-70
2021/07/10 07:06:05;;;;;;;16.13;14.53;;;25.20;54.50;;;;;;5006270;28;20235;-70
2021/07/10 07:08:34;;;;;;;16.87;15.17;;;25.10;54.50;;;;;;5005192;28;21308;-70
2021/07/10 07:11:03;;;;;;;15.90;14.40;;;25.10;54.50;;;;;;5008200;28;20238;-69
2021/07/10 07:13:30;;;;;;;16.27;14.57;;;25.10;54.50;;;;;;5007642;28;20228;-69
2021/07/10 07:15:59;;;;;;;16.67;14.47;;;25.20;55.20;;;;;;5007962;28;20246;-69
2021/07/10 07:18:28;;;;;;;15.53;13.90;;;25.20;54.70;;;;;;5005515;28;20248;-68
2021/07/10 07:21:10;;;;;;;16.33;14.73;;;25.10;54.60;;;;;;5007372;28;20213;-67
2021/07/10 07:23:37;;;;;;;16.20;14.63;;;25.10;54.70;;;;;;5010254;28;20228;-68
2021/07/10 07:26:04;;;;;;;15.57;13.97;;;25.20;54.60;;;;;;5003015;28;20231;-69
2021/07/10 07:28:36;;;;;;;16.70;14.63;;;25.20;54.70;;;;;;5006039;28;20681;-70
2021/07/10 07:31:05;;;;;;;17.67;15.83;;;25.20;54.80;;;;;;5009704;28;20232;-67
2021/07/10 07:33:34;;;;;;;17.77;14.63;;;25.20;54.70;;;;;;5006585;28;20965;-71
2021/07/10 07:36:03;;;;;;;17.00;14.93;;;25.30;55.20;;;;;;5008633;28;20310;-72
2021/07/10 07:38:31;;;;;;;19.93;14.90;;;25.30;54.60;;;;;;5008187;28;20547;-72
2021/07/10 07:40:59;;;;;;;16.67;14.93;;;25.40;54.60;;;;;;5007985;28;20227;-72
2021/07/10 07:43:30;;;;;;;15.70;13.73;;;25.30;54.90;;;;;;4988286;28;20224;-70
2021/07/10 07:45:58;;;;;;;18.77;13.77;;;25.40;54.50;;;;;;5005771;28;20626;-71
2021/07/10 07:48:29;;;;;;;16.27;14.57;;;25.40;54.30;;;;;;5008284;28;20220;-72
2021/07/10 07:51:02;;;;;;;15.53;13.93;;;25.40;54.20;;;;;;5005576;28;20265;-71
2021/07/10 07:53:29;;;;;;;17.17;15.37;;;25.40;54.20;;;;;;5007291;28;20210;-71
2021/07/10 07:55:59;;;;;;;18.17;15.40;;;25.50;54.20;;;;;;5007291;28;20230;-72
2021/07/10 07:58:30;;;;;;;18.07;15.43;;;25.50;54.20;;;;;;4996810;28;20224;-72
2021/07/10 08:00:58;;;;;;;19.87;15.10;;;25.50;54.00;;;;;;4993981;28;20236;-72
2021/07/10 08:03:25;;;;;;;17.37;15.60;;;25.50;54.00;;;;;;5010555;28;20217;-70
2021/07/10 08:05:53;;;;;;;16.23;14.50;;;25.50;53.90;;;;;;5012805;28;20229;-70
2021/07/10 08:08:20;;;;;;;15.80;14.07;;;25.50;53.80;;;;;;5011759;28;20212;-71
2021/07/10 08:10:48;;;;;;;16.30;14.60;;;25.60;53.80;;;;;;5009667;28;20221;-71
2021/07/10 08:13:15;;;;;;;16.93;15.13;;;25.60;53.70;;;;;;5014621;28;20233;-72
2021/07/10 08:15:44;;;;;;;17.00;15.20;;;25.70;53.70;;;;;;5008758;28;20254;-72
2021/07/10 08:18:11;;;;;;;17.57;15.23;;;25.60;53.80;;;;;;5004679;28;20257;-70
2021/07/10 08:20:40;;;;;;;17.30;15.60;;;25.70;53.60;;;;;;5010120;28;20236;-71
2021/07/10 08:23:13;;;;;;;18.63;16.23;;;25.70;53.50;;;;;;5010365;28;20215;-70
2021/07/10 08:25:42;;;;;;;18.60;16.57;;;25.70;53.50;;;;;;5011073;28;20227;-75
2021/07/10 08:28:09;;;;;;;18.07;15.23;;;25.70;53.50;;;;;;5012016;28;20224;-72
2021/07/10 08:30:37;;;;;;;17.43;15.60;;;25.70;53.40;;;;;;4995881;28;20232;-72
2021/07/10 08:33:04;;;;;;;16.43;14.37;;;25.70;53.30;;;;;;5008362;28;20225;-72
2021/07/10 08:35:30;;;;;;;17.37;14.37;;;25.70;53.30;;;;;;5008636;28;20229;-72
2021/07/10 08:37:59;;;;;;;17.03;13.17;;;25.70;53.30;;;;;;5016418;28;20241;-70
2021/07/10 08:40:26;;;;;;;13.87;12.37;;;25.70;53.10;;;;;;5008517;28;20322;-71
2021/07/10 08:42:53;;;;;;;13.90;12.50;;;25.80;53.10;;;;;;5012060;28;20227;-70
2021/07/10 08:45:20;;;;;;;14.70;11.13;;;25.80;53.10;;;;;;5008107;28;20209;-70
2021/07/10 08:47:49;;;;;;;11.30;10.20;;;25.80;53.20;;;;;;5006768;28;20232;-70
2021/07/10 08:50:18;;;;;;;12.67;11.13;;;25.80;52.90;;;;;;5015636;28;20587;-68
2021/07/10 08:52:50;;;;;;;13.53;11.13;;;25.80;52.80;;;;;;5010994;28;20240;-70
2021/07/10 08:55:19;;;;;;;12.07;10.87;;;25.90;52.70;;;;;;5006326;28;20233;-72
2021/07/10 08:57:46;;;;;;;12.03;10.73;;;25.90;52.70;;;;;;5010518;28;20666;-70
2021/07/10 09:00:36;;;;;;;12.67;11.37;;;25.90;52.70;;;;;;5012046;28;20228;-68
2021/07/10 09:03:05;;;;;;;14.80;11.47;;;25.90;52.60;;;;;;5001620;28;20212;-71
2021/07/10 09:05:32;;;;;;;13.43;11.57;;;25.90;52.40;;;;;;5009500;28;20280;-73
2021/07/10 09:08:23;;;;;;;23.20;13.13;;;25.90;52.40;;;;;;5005483;28;20230;-69
2021/07/10 09:11:00;;;;;;;21.93;14.13;;;25.90;53.10;;;;;;5001209;28;20247;-69
2021/07/10 09:13:44;;;;;;;16.73;12.87;;;25.90;53.20;;;;;;5010468;28;20228;-70
2021/07/10 09:16:47;;;;;;;13.43;11.30;;;25.90;52.90;;;;;;5010636;28;20224;-71
2021/07/10 09:19:14;;;;;;;13.83;11.10;;;25.90;53.30;;;;;;4930018;29;20254;-69
2021/07/10 09:21:45;;;;;;;12.90;10.93;;;25.90;53.40;;;;;;4995679;28;20236;-69
2021/07/10 09:24:17;;;;;;;13.80;11.83;;;25.90;53.50;;;;;;5001125;28;20228;-71
2021/07/10 09:26:49;;;;;;;15.03;12.23;;;26.00;53.70;;;;;;5001862;28;20223;-73
2021/07/10 09:29:19;;;;;;;13.30;11.90;;;26.00;53.60;;;;;;5009591;28;20228;-73
2021/07/10 09:31:54;;;;;;;13.70;12.33;;;26.00;53.60;;;;;;5015616;28;20230;-71
2021/07/10 09:34:32;;;;;;;14.53;11.60;;;26.00;53.60;;;;;;5011704;28;20231;-68
2021/07/10 09:37:02;;;;;;;14.00;12.10;;;26.00;53.50;;;;;;5012847;28;20276;-69
2021/07/10 09:39:32;;;;;;;13.67;11.90;;;26.10;53.30;;;;;;5010622;28;20209;-70
2021/07/10 09:42:01;;;;;;;16.60;12.53;;;26.10;53.20;;;;;;5005326;28;20218;-71
2021/07/10 09:44:47;;;;;;;14.20;12.80;;;26.10;53.30;;;;;;5010147;28;20212;-71
2021/07/10 09:47:16;;;;;;;16.50;13.00;;;26.10;53.30;;;;;;5007126;28;20292;-67
2021/07/10 09:49:45;;;;;;;14.00;12.60;;;26.10;53.40;;;;;;5007201;28;20836;-68
2021/07/10 09:52:18;;;;;;;14.67;13.03;;;26.10;53.40;;;;;;5004398;28;20251;-68
2021/07/10 09:54:54;;;;;;;13.80;12.33;;;26.10;53.30;;;;;;5003806;28;20540;-69
2021/07/10 09:57:34;;;;;;;13.30;11.90;;;26.10;53.10;;;;;;5006375;28;20244;-71
2021/07/10 10:00:10;;;;;;;14.20;12.70;;;26.10;53.00;;;;;;5008813;28;20217;-72
2021/07/10 10:02:47;;;;;;;15.67;12.13;;;26.10;53.30;;;;;;5007700;28;20716;-72
2021/07/10 10:05:18;;;;;;;13.83;11.87;;;26.10;53.00;;;;;;5013940;28;20225;-71
2021/07/10 10:07:52;;;;;;;13.87;11.70;;;26.10;52.80;;;;;;5002142;28;20221;-72
2021/07/10 10:10:24;;;;;;;13.87;12.40;;;26.10;52.60;;;;;;5012008;28;20232;-69
2021/07/10 10:13:08;;;;;;;13.60;11.93;;;26.10;52.50;;;;;;5009298;28;20232;-72
2021/07/10 10:15:37;;;;;;;17.37;11.87;;;26.10;52.50;;;;;;5009246;28;20659;-70
2021/07/10 10:18:06;;;;;;;15.83;12.33;;;26.10;52.80;;;;;;4990547;28;20254;-70
2021/07/10 10:20:34;;;;;;;21.47;13.60;;;26.10;52.60;;;;;;4991689;28;20220;-69
2021/07/10 10:23:06;;;;;;;16.73;13.67;;;26.10;52.70;;;;;;5006527;28;20225;-68
2021/07/10 10:25:34;;;;;;;16.87;12.93;;;26.10;52.90;;;;;;5014366;28;20232;-67
2021/07/10 10:28:04;;;;;;;16.57;12.93;;;26.10;53.10;;;;;;5003010;28;20226;-70
2021/07/10 10:30:31;;;;;;;14.67;13.03;;;26.10;53.40;;;;;;5017197;28;20654;-68
2021/07/10 10:32:58;;;;;;;13.73;12.33;;;26.10;53.20;;;;;;5003101;28;20239;-70
2021/07/10 10:35:25;;;;;;;12.63;11.43;;;26.10;53.10;;;;;;5008454;28;20235;-65
2021/07/10 10:37:53;;;;;;;13.97;11.40;;;26.10;53.00;;;;;;5006461;28;20715;-65
2021/07/10 10:40:25;;;;;;;12.30;11.00;;;26.10;52.90;;;;;;5001882;28;20239;-64
2021/07/10 10:43:02;;;;;;;11.23;10.00;;;26.10;52.90;;;;;;5008500;28;20924;-65
2021/07/10 10:45:33;;;;;;;11.83;10.20;;;26.10;52.90;;;;;;5007278;28;20686;-65
2021/07/10 10:48:00;;;;;;;11.10;10.00;;;26.10;53.00;;;;;;4997665;28;20220;-63
2021/07/10 10:50:30;;;;;;;10.37;9.27;;;26.10;53.20;;;;;;4996462;28;20256;-64
2021/07/10 10:52:58;;;;;;;11.13;10.03;;;26.00;53.20;;;;;;5006925;28;20309;-65
2021/07/10 10:55:31;;;;;;;11.43;9.73;;;26.00;53.30;;;;;;5003409;28;20364;-64
2021/07/10 10:57:59;;;;;;;10.77;9.70;;;26.00;53.20;;;;;;4991732;28;20236;-65
2021/07/10 11:00:30;;;;;;;11.03;9.00;;;26.00;53.10;;;;;;5007066;28;20238;-65
2021/07/10 11:03:04;;;;;;;10.87;9.30;;;26.00;53.80;;;;;;4990282;28;20234;-66
2021/07/10 11:05:31;;;;;;;10.63;9.27;;;26.00;53.10;;;;;;5009991;28;20229;-63
2021/07/10 11:08:19;;;;;;;13.17;8.90;;;26.00;52.90;;;;;;5004956;28;20221;-63
2021/07/10 11:10:58;;;;;;;9.43;8.10;;;26.00;53.30;;;;;;5007100;28;20233;-65
2021/07/10 11:13:47;;;;;;;14.27;8.30;;;26.00;53.40;;;;;;5001498;28;20224;-64
2021/07/10 11:16:19;;;;;;;11.47;8.50;;;26.10;53.30;;;;;;4998576;28;20254;-63
2021/07/10 11:18:54;;;;;;;9.70;8.70;;;26.10;53.10;;;;;;5007292;28;20253;-63
2021/07/10 11:21:34;;;;;;;9.30;8.40;;;26.10;52.60;;;;;;5007018;28;20216;-64
2021/07/10 11:24:16;;;;;;;8.97;8.17;;;26.00;52.00;;;;;;5006706;28;20225;-64
2021/07/10 11:26:59;;;;;;;8.60;7.70;;;26.10;52.10;;;;;;5004135;28;20246;-65
2021/07/10 11:29:38;;;;;;;8.87;8.07;;;26.10;52.60;;;;;;5008135;28;20254;-64
2021/07/10 11:32:16;;;;;;;9.00;7.50;;;26.10;52.60;;;;;;5004976;28;20219;-64
2021/07/10 11:34:48;;;;;;;11.07;8.23;;;26.10;52.30;;;;;;5000707;28;20219;-64
2021/07/10 11:37:20;;;;;;;8.67;7.80;;;26.10;52.20;;;;;;5005981;28;20243;-65
2021/07/10 11:39:53;;;;;;;8.43;7.57;;;26.10;52.10;;;;;;5004056;28;20227;-65
2021/07/10 11:42:21;;;;;;;9.30;7.43;;;26.10;52.00;;;;;;4990366;28;20230;-65
2021/07/10 11:44:53;;;;;;;8.10;7.30;;;26.10;51.90;;;;;;5005538;28;20221;-65
2021/07/10 11:47:38;;;;;;;11.57;8.10;;;26.10;51.90;;;;;;5006224;28;20219;-66
2021/07/10 11:50:13;;;;;;;10.17;9.00;;;26.10;51.90;;;;;;5002811;28;20213;-65
2021/07/10 11:52:41;;;;;;;10.23;7.67;;;26.20;51.90;;;;;;5006561;28;20216;-65
2021/07/10 11:55:09;;;;;;;8.27;7.47;;;26.20;51.80;;;;;;4990326;28;20265;-64
2021/07/10 11:57:39;;;;;;;8.07;7.20;;;26.20;51.80;;;;;;5008976;28;20236;-64
2021/07/10 12:00:14;;;;;;;9.57;7.27;;;26.20;51.70;;;;;;5003156;28;20228;-65
2021/07/10 12:02:42;;;;;;;7.40;6.70;;;26.10;51.10;;;;;;4996409;28;20227;-66
2021/07/10 12:05:14;;;;;;;7.53;6.73;;;26.10;51.10;;;;;;5006999;28;20252;-65
2021/07/10 12:07:45;;;;;;;6.83;5.53;;;26.10;50.90;;;;;;5007220;28;20234;-64
2021/07/10 12:10:20;;;;;;;10.80;6.87;;;26.10;51.10;;;;;;5003994;28;20475;-67
2021/07/10 12:12:54;;;;;;;12.70;6.33;;;26.20;53.30;;;;;;5004243;28;20665;-68
2021/07/10 12:15:26;;;;;;;7.83;6.17;;;26.40;54.00;;;;;;4999348;28;20260;-68
2021/07/10 12:17:55;;;;;;;8.47;6.27;;;26.60;53.80;;;;;;5008984;28;20280;-68
2021/07/10 12:20:26;;;;;;;9.87;5.80;;;26.70;53.40;;;;;;5013963;28;20221;-68
2021/07/10 12:23:02;;;;;;;11.13;6.53;;;26.80;53.40;;;;;;5007265;28;20275;-68
2021/07/10 12:25:34;;;;;;;8.60;6.27;;;26.90;53.10;;;;;;5017475;28;20839;-70
2021/07/10 12:28:04;;;;;;;12.87;5.83;;;27.00;52.90;;;;;;5006492;28;20243;-70
2021/07/10 12:30:51;;;;;;;12.87;6.37;;;27.10;52.50;;;;;;5004955;28;20217;-71
2021/07/10 12:33:30;;;;;;;12.03;6.83;;;27.20;52.40;;;;;;5008555;28;20244;-70
2021/07/10 12:36:19;;;;;;;10.53;6.60;;;27.20;52.80;;;;;;5012128;28;20224;-68
2021/07/10 12:38:55;;;;;;;14.13;6.43;;;27.30;52.80;;;;;;5005342;28;20264;-66
2021/07/10 12:41:27;;;;;;;7.93;6.23;;;27.40;52.90;;;;;;5010417;28;20225;-70
2021/07/10 12:44:13;;;;;;;9.67;5.80;;;27.40;53.20;;;;;;5008966;28;20227;-68